Air Sicilia Virtual Airways - Route

Air Sicilia Virtual Airways - SIC234L

( SN ) GOSS
Saint Louis Airport
SAINT LOUIS ( XLS )
plane_to ( ML ) GAGO
Gao Airport
( GAQ )
Tour Amelia EARHART - LEG: 10

AIRPORT NEAR NAVIGATION AIDS

Type Name Frequency
NDB Saint Louis 355 KHZ

METAR / TAF
GOSS 191600Z 36010KT CAVOK 28/19 Q1011
GOSS 191130Z 1912/2012 35010KT CAVOK

RUNWAY INFORMATION

Runway Runway length Runway width Runway elevation Runway displaced threshold Runway heading
01 4300 125 0 0 4.3
19 4300 125 0 0 184.3
18 6230 100 10 0 172.6
36 6230 100 7 0 352.6

AIRPORT FREQUENCIES

Type Name Frequency
A/G RDO 568 MHZ
TWR TWR 118.7 MHZ

AIRPORT NEAR NAVIGATION AIDS

Type Name Frequency
VOR Gao 112300 KHZ
NDB Gao 364 KHZ

METAR / TAF

GAGO 191140Z 1912/2012 24008G18KT 8000 NSC PROB40 TEMPO 1918/1924 10018G45KT 1200 BLDU TSRA SCT040 FEW045CB

RUNWAY INFORMATION

Runway Runway length Runway width Runway elevation Runway displaced threshold Runway heading
07 8202 148 836 0 62
25 8202 148 863 0 242

AIRPORT FREQUENCIES

Type Name Frequency
A/G RDO 889.4 MHZ
TWR TWR 118.1 MHZ

Flightplan

via NEMA

Air Sicilia Virtual Airways Fleets

AVAILABLE AIRCRAFTS for route at this time in Saint Louis Airport
DC3 - Douglas DC3
( US ) Douglas

Aircraft in fleet: 2

954 NM

Distance in nautical miles.

€ 0,00

Ticket price for this flight.

Nr. 10

Leg



12-11-2018
Aerosoft Airport Rio de Janeiro International V2.0 XP

L'Aeroporto Internazionale di Rio de Janeiro-Galeão (IATA: GIG, ICAO: SBGL), costruito nel 1952 nel quartiere di Ilha do Governador ed intitolato al musicista Antônio Carlos Jobim, è il principale aeroporto internazio ....


15-10-2018
Aerosoft A320 Family professional

La gamma di aeromobili A320 è una delle più comuni nei cieli. Questi aerei di linea a doppio-getto a corto e medio raggio si sono dimostrati convenienti, affidabili e prontamente disponibili, rendendoli le opzioni migl ....


10-10-2018
Motore critico ( Critical Engine )

Il motore critico di un velivolo ad ala fissa multi-motore è il motore che, in caso di guasto, influirebbe negativamente sulle prestazioni o sulla capacità di manovra di un aereo. Sui velivoli ad elica, vi è un ....


04-10-2018
Aerosoft Dortmund XP

Scopri il centro della regione della Ruhr su XPlane 11 - lo scenario Dortmund XP è una ricostruzione completa della città di Dortmund per il simulatore di volo targato Laminar. Oltre all'intera area urbana di Dortmu ....


07-08-2018
Aerosoft Professional Flight Planner PFPX

PFPX - Professional Flight Planner X - è un nuovo ed innovativo strumento di pianificazione del volo sviluppato da piloti e dispatcher del mondo reale. È un'aggiunta preziosa e realistica alla tua esperienza di simulaz ....